createdAt,value
2022-10-22T00:01:11.929Z,100659.97
2022-10-22T00:03:41.624Z,100653.72
2022-10-22T00:06:09.911Z,100650.41
2022-10-22T00:08:38.179Z,100632.78
2022-10-22T00:11:11.191Z,100649.53
2022-10-22T00:13:39.562Z,100627.72
2022-10-22T00:16:07.790Z,100635.38
2022-10-22T00:18:37.063Z,100627.69
2022-10-22T00:21:08.078Z,100613.47
2022-10-22T00:23:36.649Z,100626.78
2022-10-22T00:26:04.966Z,100624.59
2022-10-22T00:28:33.237Z,100626.31
2022-10-22T00:31:02.755Z,100619.88
2022-10-22T00:33:31.438Z,100618.78
2022-10-22T00:36:00.034Z,100607.22
2022-10-22T00:38:29.532Z,100618.75
2022-10-22T00:40:58.013Z,100621.00
2022-10-22T00:43:26.210Z,100622.22
2022-10-22T00:45:54.239Z,100611.63
2022-10-22T00:48:26.758Z,100609.31
2022-10-22T00:50:59.180Z,100615.84
2022-10-22T00:53:31.507Z,100601.06
2022-10-22T00:56:00.234Z,100601.22
2022-10-22T00:58:32.317Z,100602.78
2022-10-22T01:01:00.728Z,100616.13
2022-10-22T01:03:30.312Z,100614.06
2022-10-22T01:06:00.785Z,100587.66
2022-10-22T01:08:43.059Z,100613.06
2022-10-22T01:11:18.397Z,100610.16
2022-10-22T01:13:53.898Z,100576.34
2022-10-22T01:16:30.341Z,100603.06
2022-10-22T01:19:10.356Z,100603.91
2022-10-22T01:21:44.143Z,100600.19
2022-10-22T01:24:26.293Z,100596.38
2022-10-22T01:27:17.075Z,100590.06
2022-10-22T01:29:51.974Z,100586.16
2022-10-22T01:32:23.600Z,100595.38
2022-10-22T01:34:55.404Z,100591.34
2022-10-22T01:37:27.409Z,100601.28
2022-10-22T01:39:57.379Z,100572.44
2022-10-22T01:42:26.362Z,100592.63
2022-10-22T01:44:56.156Z,100594.69
2022-10-22T01:47:38.146Z,100596.63
2022-10-22T01:50:22.103Z,100592.75
2022-10-22T01:53:04.665Z,100588.53
2022-10-22T01:55:44.902Z,100582.88
2022-10-22T01:58:23.201Z,100588.03
2022-10-22T02:01:02.107Z,100580.03
2022-10-22T02:03:36.580Z,100602.34
2022-10-22T02:06:10.879Z,100595.25
2022-10-22T02:08:40.593Z,100604.19
2022-10-22T02:11:10.714Z,100600.44
2022-10-22T02:13:44.592Z,100573.75
2022-10-22T02:16:18.486Z,100597.75
2022-10-22T02:18:50.642Z,100559.19
2022-10-22T02:21:19.675Z,100595.78
2022-10-22T02:23:48.061Z,100593.16
2022-10-22T02:26:24.384Z,100601.91
2022-10-22T02:29:00.262Z,100599.84
2022-10-22T02:31:33.146Z,100598.38
2022-10-22T02:34:08.293Z,100596.13
2022-10-22T02:36:38.652Z,100580.84
2022-10-22T02:39:10.069Z,100592.00
2022-10-22T02:41:39.293Z,100574.41
2022-10-22T02:44:11.161Z,100579.59
2022-10-22T02:46:42.054Z,100590.41
2022-10-22T02:49:10.340Z,100592.84
2022-10-22T02:51:38.850Z,100596.47
2022-10-22T02:54:07.221Z,100591.47
2022-10-22T02:56:35.882Z,100598.09
2022-10-22T02:59:04.077Z,100587.97
2022-10-22T03:01:32.239Z,100586.97
2022-10-22T03:04:04.466Z,100588.94
2022-10-22T03:06:32.848Z,100575.13
2022-10-22T03:09:00.953Z,100596.31
2022-10-22T03:11:29.759Z,100594.47
2022-10-22T03:13:57.838Z,100568.50
2022-10-22T03:16:25.949Z,100600.38
2022-10-22T03:18:53.987Z,100585.16
2022-10-22T03:21:30.943Z,100600.03
2022-10-22T03:24:01.180Z,100586.50
2022-10-22T03:26:29.618Z,100568.03
2022-10-22T03:28:58.771Z,100593.44
2022-10-22T03:31:27.015Z,100578.91
2022-10-22T03:33:55.693Z,100584.19
2022-10-22T03:36:25.277Z,100576.66
2022-10-22T03:38:55.912Z,100587.41
2022-10-22T03:41:24.496Z,100574.47
2022-10-22T03:43:54.882Z,100577.06
2022-10-22T03:46:23.904Z,100573.91
2022-10-22T03:48:52.342Z,100579.16
2022-10-22T03:51:20.447Z,100578.63
2022-10-22T03:53:50.440Z,100585.16
2022-10-22T03:56:18.613Z,100579.94
2022-10-22T03:58:47.915Z,100545.94
2022-10-22T04:01:16.708Z,100569.78
2022-10-22T04:03:44.924Z,100573.63
2022-10-22T04:06:14.322Z,100597.44
2022-10-22T04:08:45.361Z,100571.66
2022-10-22T04:11:16.499Z,100588.47
2022-10-22T04:13:45.298Z,100582.47
2022-10-22T04:16:16.362Z,100598.13
2022-10-22T04:18:45.650Z,100604.47
2022-10-22T04:21:16.174Z,100607.72
2022-10-22T04:23:46.999Z,100607.84
2022-10-22T04:26:17.855Z,100602.94
2022-10-22T04:28:46.987Z,100576.13
2022-10-22T04:31:17.318Z,100607.47
2022-10-22T04:33:45.913Z,100606.16
2022-10-22T04:36:16.031Z,100606.19
2022-10-22T04:38:45.946Z,100604.88
2022-10-22T04:41:17.061Z,100609.28
2022-10-22T04:43:46.200Z,100613.69
2022-10-22T04:46:15.642Z,100606.19
2022-10-22T04:48:45.709Z,100593.03
2022-10-22T04:51:16.376Z,100593.50
2022-10-22T04:53:45.469Z,100562.59
2022-10-22T04:56:21.031Z,100582.25
2022-10-22T04:58:50.348Z,100582.19
2022-10-22T05:01:21.123Z,100578.59
2022-10-22T05:03:52.992Z,100576.53
2022-10-22T05:06:23.251Z,100577.59
2022-10-22T05:08:55.336Z,100580.19
2022-10-22T05:11:27.996Z,100572.78
2022-10-22T05:13:57.673Z,100575.19
2022-10-22T05:16:27.104Z,100569.38
2022-10-22T05:18:55.419Z,100572.38
2022-10-22T05:21:23.528Z,100558.84
2022-10-22T05:23:52.266Z,100571.09
2022-10-22T05:26:22.511Z,100567.34
2022-10-22T05:28:52.603Z,100581.50
2022-10-22T05:31:21.595Z,100588.75
2022-10-22T05:33:49.858Z,100571.22
2022-10-22T05:36:21.614Z,100570.41
2022-10-22T05:38:50.217Z,100593.50
2022-10-22T05:41:20.211Z,100583.53
2022-10-22T05:43:48.575Z,100571.47
2022-10-22T05:46:22.817Z,100572.44
2022-10-22T05:48:51.868Z,100579.19
2022-10-22T05:51:20.447Z,100577.69
2022-10-22T05:53:53.416Z,100562.63
2022-10-22T05:56:22.045Z,100557.72
2022-10-22T05:58:50.297Z,100565.13
2022-10-22T06:01:22.065Z,100574.34
2022-10-22T06:03:50.865Z,100576.34
2022-10-22T06:06:22.737Z,100579.34
2022-10-22T06:08:52.889Z,100556.31
2022-10-22T06:11:22.422Z,100574.94
2022-10-22T06:13:51.825Z,100578.03
2022-10-22T06:16:21.456Z,100575.72
2022-10-22T06:18:49.639Z,100570.38
2022-10-22T06:21:18.180Z,100581.84
2022-10-22T06:23:46.613Z,100573.22
2022-10-22T06:26:15.842Z,100579.03
2022-10-22T06:28:44.286Z,100582.16
2022-10-22T06:31:12.709Z,100575.72
2022-10-22T06:33:43.428Z,100562.53
2022-10-22T06:36:13.753Z,100582.69
2022-10-22T06:38:42.799Z,100571.69
2022-10-22T06:41:13.558Z,100571.00
2022-10-22T06:43:41.942Z,100588.97
2022-10-22T06:46:14.779Z,100590.94
2022-10-22T06:48:50.785Z,100592.84
2022-10-22T06:51:19.978Z,100597.28
2022-10-22T06:53:48.736Z,100592.47
2022-10-22T06:56:19.581Z,100598.56
2022-10-22T06:58:48.678Z,100593.75
2022-10-22T07:01:18.759Z,100613.34
2022-10-22T07:03:48.699Z,100610.78
2022-10-22T07:06:16.950Z,100617.41
2022-10-22T07:08:46.204Z,100621.59
2022-10-22T07:11:16.487Z,100603.91
2022-10-22T07:13:45.850Z,100600.81
2022-10-22T07:16:14.632Z,100616.16
2022-10-22T07:18:45.107Z,100615.97
2022-10-22T07:21:16.657Z,100613.72
2022-10-22T07:23:45.407Z,100591.53
2022-10-22T07:26:15.748Z,100594.94
2022-10-22T07:28:44.274Z,100607.38
2022-10-22T07:31:14.599Z,100579.38
2022-10-22T07:33:43.056Z,100602.91
2022-10-22T07:36:18.149Z,100592.00
2022-10-22T07:38:46.859Z,100586.22
2022-10-22T07:41:16.096Z,100575.88
2022-10-22T07:43:44.535Z,100589.28
2022-10-22T07:46:13.075Z,100597.28
2022-10-22T07:48:42.941Z,100608.09
2022-10-22T07:51:11.575Z,100607.19
2022-10-22T07:53:42.194Z,100603.06
2022-10-22T07:56:11.261Z,100594.34
2022-10-22T07:58:39.644Z,100570.72
2022-10-22T08:01:08.542Z,100594.75
2022-10-22T08:03:37.531Z,100595.28
2022-10-22T08:06:06.422Z,100595.59
2022-10-22T08:08:34.959Z,100598.41
2022-10-22T08:11:05.116Z,100596.50
2022-10-22T08:13:33.605Z,100589.16
2022-10-22T08:16:01.727Z,100579.13
2022-10-22T08:18:30.648Z,100577.97
2022-10-22T08:20:59.827Z,100572.09
2022-10-22T08:23:29.028Z,100580.59
2022-10-22T08:25:58.681Z,100589.78
2022-10-22T08:28:29.922Z,100590.75
2022-10-22T08:30:58.171Z,100571.38
2022-10-22T08:33:26.658Z,100574.06
2022-10-22T08:35:54.848Z,100583.34
2022-10-22T08:38:24.352Z,100583.91
2022-10-22T08:40:55.243Z,100556.66
2022-10-22T08:43:43.231Z,100583.25
2022-10-22T08:46:27.762Z,100584.94
2022-10-22T08:48:58.212Z,100579.28
2022-10-22T08:51:29.920Z,100559.81
2022-10-22T08:54:18.991Z,100566.13
2022-10-22T08:56:54.168Z,100549.00
2022-10-22T08:59:34.440Z,100560.47
2022-10-22T09:02:06.320Z,100530.25
2022-10-22T09:04:41.711Z,100548.91
2022-10-22T09:07:11.717Z,100556.19
2022-10-22T09:09:44.666Z,100554.88
2022-10-22T09:12:20.194Z,100546.66
2022-10-22T09:14:50.797Z,100548.00
2022-10-22T09:17:27.574Z,100543.56
2022-10-22T09:20:05.343Z,100537.34
2022-10-22T09:22:40.161Z,100537.69
2022-10-22T09:25:20.821Z,100537.09
2022-10-22T09:27:50.411Z,100523.94
2022-10-22T09:30:22.551Z,100521.25
2022-10-22T09:32:54.001Z,100527.91
2022-10-22T09:35:25.815Z,100522.59
2022-10-22T09:37:56.863Z,100514.50
2022-10-22T09:40:25.701Z,100515.38
2022-10-22T09:42:54.248Z,100522.47
2022-10-22T09:45:27.204Z,100513.91
2022-10-22T09:48:10.703Z,100510.84
2022-10-22T09:50:44.320Z,100495.94
2022-10-22T09:53:20.672Z,100494.47
2022-10-22T09:58:22.434Z,100488.53
2022-10-22T10:00:56.296Z,100484.44
2022-10-22T10:03:26.772Z,100473.44
2022-10-22T10:06:00.064Z,100470.00
2022-10-22T10:08:32.051Z,100440.84
2022-10-22T10:11:05.738Z,100471.44
2022-10-22T10:13:47.736Z,100466.91
2022-10-22T10:16:33.142Z,100462.22
2022-10-22T10:19:14.929Z,100455.19
2022-10-22T10:21:54.860Z,100457.41
2022-10-22T10:24:34.097Z,100449.81
2022-10-22T10:27:09.042Z,100447.91
2022-10-22T10:29:46.994Z,100444.28
2022-10-22T10:32:29.975Z,100427.50
2022-10-22T10:35:08.019Z,100430.66
2022-10-22T10:37:45.545Z,100417.78
2022-10-22T10:40:26.947Z,100404.72
2022-10-22T10:43:00.005Z,100419.88
2022-10-22T10:45:34.625Z,100406.91
2022-10-22T10:48:30.326Z,100404.28
2022-10-22T10:51:08.849Z,100395.50
2022-10-22T10:53:52.108Z,100368.13
2022-10-22T10:56:39.316Z,100378.44
2022-10-22T10:59:25.258Z,100372.22
2022-10-22T11:02:14.986Z,100375.34
2022-10-22T11:05:23.713Z,100374.97
2022-10-22T11:07:58.070Z,100361.06
2022-10-22T11:10:31.618Z,100366.28
2022-10-22T11:13:08.268Z,100353.53
2022-10-22T11:15:38.676Z,100343.56
2022-10-22T11:18:17.202Z,100336.25
2022-10-22T11:20:53.257Z,100330.44
2022-10-22T11:23:29.753Z,100334.50
2022-10-22T11:25:58.193Z,100337.16
2022-10-22T11:28:33.778Z,100328.06
2022-10-22T11:31:05.602Z,100329.59
2022-10-22T11:33:45.228Z,100327.94
2022-10-22T11:36:15.616Z,100312.00
2022-10-22T11:38:44.094Z,100314.16
2022-10-22T11:41:14.777Z,100307.16
2022-10-22T11:44:00.674Z,100297.03
2022-10-22T11:46:41.798Z,100293.38
2022-10-22T11:49:20.451Z,100300.13
2022-10-22T11:51:51.242Z,100291.88
2022-10-22T11:54:33.080Z,100283.03
2022-10-22T11:57:21.347Z,100290.19
2022-10-22T11:59:52.829Z,100296.28
2022-10-22T12:02:42.969Z,100270.78
2022-10-22T12:05:44.920Z,100278.81
2022-10-22T12:08:33.031Z,100277.91
2022-10-22T12:11:16.416Z,100270.00
2022-10-22T12:14:22.992Z,100259.91
2022-10-22T12:16:57.828Z,100256.06
2022-10-22T12:19:30.639Z,100267.22
2022-10-22T12:22:01.154Z,100267.34
2022-10-22T12:24:36.044Z,100249.53
2022-10-22T12:27:05.058Z,100240.31
2022-10-22T12:29:35.163Z,100256.41
2022-10-22T12:32:06.807Z,100250.00
2022-10-22T12:34:34.988Z,100246.34
2022-10-22T12:37:07.208Z,100243.78
2022-10-22T12:39:36.772Z,100245.81
2022-10-22T12:42:06.536Z,100239.25
2022-10-22T12:44:35.241Z,100221.94
2022-10-22T12:47:03.725Z,100229.91
2022-10-22T12:49:37.802Z,100218.47
2022-10-22T12:52:10.973Z,100228.91
2022-10-22T12:54:43.374Z,100227.78
2022-10-22T12:57:16.143Z,100221.47
2022-10-22T12:59:50.067Z,100224.59
2022-10-22T13:02:22.883Z,100223.59
2022-10-22T13:05:21.904Z,100172.41
2022-10-22T13:07:52.782Z,100224.06
2022-10-22T13:10:26.598Z,100217.47
2022-10-22T13:12:59.137Z,100211.81
2022-10-22T13:15:40.644Z,100218.69
2022-10-22T13:18:19.663Z,100210.16
2022-10-22T13:20:56.364Z,100187.34
2022-10-22T13:23:26.712Z,100219.34
2022-10-22T13:26:01.636Z,100206.75
2022-10-22T13:28:31.953Z,100204.91
2022-10-22T13:31:01.913Z,100215.19
2022-10-22T13:33:33.715Z,100208.72
2022-10-22T13:36:02.695Z,100206.72
2022-10-22T13:38:31.456Z,100203.94
2022-10-22T13:41:03.635Z,100192.66
2022-10-22T13:43:31.918Z,100205.25
2022-10-22T13:46:02.100Z,100200.94
2022-10-22T13:48:31.486Z,100193.31
2022-10-22T13:50:59.875Z,100180.34
2022-10-22T13:53:30.575Z,100201.25
2022-10-22T13:56:00.575Z,100196.97
2022-10-22T13:58:29.186Z,100188.31
2022-10-22T14:01:00.562Z,100170.13
2022-10-22T14:03:33.318Z,100182.69
2022-10-22T14:06:03.187Z,100171.03
2022-10-22T14:08:31.490Z,100174.38
2022-10-22T14:11:02.073Z,100150.53
2022-10-22T14:13:30.493Z,100168.88
2022-10-22T14:15:59.578Z,100170.09
2022-10-22T14:18:31.802Z,100162.03
2022-10-22T14:21:05.365Z,100154.28
2022-10-22T14:23:35.280Z,100169.44
2022-10-22T14:26:07.280Z,100148.03
2022-10-22T14:28:41.359Z,100169.16
2022-10-22T14:31:15.066Z,100169.84
2022-10-22T14:33:43.391Z,100153.09
2022-10-22T14:36:14.183Z,100165.06
2022-10-22T14:38:42.859Z,100168.25
2022-10-22T14:41:19.932Z,100157.63
2022-10-22T14:43:48.563Z,100138.91
2022-10-22T14:46:17.852Z,100153.03
2022-10-22T14:48:46.805Z,100137.59
2022-10-22T14:51:16.791Z,100153.16
2022-10-22T14:53:45.540Z,100140.56
2022-10-22T14:56:16.576Z,100150.31
2022-10-22T14:58:45.846Z,100134.22
2022-10-22T15:01:14.388Z,100140.84
2022-10-22T15:03:42.527Z,100137.34
2022-10-22T15:06:11.011Z,100151.81
2022-10-22T15:08:39.745Z,100150.81
2022-10-22T15:11:10.015Z,100158.41
2022-10-22T15:13:41.341Z,100154.44
2022-10-22T15:16:12.367Z,100157.44
2022-10-22T15:18:40.667Z,100153.31
2022-10-22T15:21:15.359Z,100119.47
2022-10-22T15:23:44.019Z,100155.63
2022-10-22T15:26:13.757Z,100151.13
2022-10-22T15:28:44.021Z,100150.75
2022-10-22T15:31:14.545Z,100144.88
2022-10-22T15:33:43.558Z,100159.50
2022-10-22T15:36:13.132Z,100168.22
2022-10-22T15:38:41.691Z,100156.63
2022-10-22T15:41:14.287Z,100144.25
2022-10-22T15:43:44.063Z,100148.78
2022-10-22T15:46:15.520Z,100149.53
2022-10-22T15:48:44.210Z,100165.34
2022-10-22T15:51:15.464Z,100167.47
2022-10-22T15:53:44.189Z,100172.75
2022-10-22T15:56:13.522Z,100167.78
2022-10-22T15:58:43.641Z,100165.06
2022-10-22T16:01:14.371Z,100151.69
2022-10-22T16:03:44.094Z,100157.66
2022-10-22T16:06:12.356Z,100157.81
2022-10-22T16:08:41.818Z,100153.75
2022-10-22T16:11:10.921Z,100169.50
2022-10-22T16:13:38.987Z,100175.19
2022-10-22T16:16:09.508Z,100170.72
2022-10-22T16:18:37.485Z,100171.84
2022-10-22T16:21:06.121Z,100168.31
2022-10-22T16:23:35.415Z,100185.78
2022-10-22T16:26:03.820Z,100190.66
2022-10-22T16:31:06.319Z,100186.88
2022-10-22T16:33:41.502Z,100188.78
2022-10-22T16:36:17.686Z,100148.38
2022-10-22T16:38:46.447Z,100166.69
2022-10-22T16:41:16.591Z,100188.28
2022-10-22T16:43:47.203Z,100196.66
2022-10-22T16:46:16.345Z,100199.59
2022-10-22T16:48:48.429Z,100186.66
2022-10-22T16:51:18.704Z,100202.47
2022-10-22T16:53:48.060Z,100107.03
2022-10-22T16:56:17.446Z,100203.63
2022-10-22T16:58:47.039Z,100196.16
2022-10-22T17:01:18.003Z,100188.94
2022-10-22T17:03:48.753Z,100203.50
2022-10-22T17:06:16.756Z,100187.13
2022-10-22T17:08:45.195Z,100205.56
2022-10-22T17:11:17.245Z,100199.91
2022-10-22T17:13:47.242Z,100178.03
2022-10-22T17:16:17.444Z,100200.22
2022-10-22T17:18:47.518Z,100201.88
2022-10-22T17:21:17.692Z,100199.22
2022-10-22T17:23:46.231Z,100195.94
2022-10-22T17:26:20.907Z,100191.22
2022-10-22T17:28:49.827Z,100185.84
2022-10-22T17:31:20.718Z,100197.47
2022-10-22T17:33:51.226Z,100174.19
2022-10-22T17:36:20.385Z,100180.69
2022-10-22T17:38:51.624Z,100102.66
2022-10-22T17:41:21.896Z,100194.16
2022-10-22T17:43:50.638Z,100186.53
2022-10-22T17:46:20.472Z,100200.00
2022-10-22T17:48:52.738Z,100170.03
2022-10-22T17:51:22.182Z,100156.72
2022-10-22T17:53:51.351Z,100165.88
2022-10-22T17:56:21.785Z,100159.22
2022-10-22T17:58:50.705Z,100186.69
2022-10-22T18:01:22.325Z,100174.03
2022-10-22T18:03:52.674Z,100181.84
2022-10-22T18:06:20.796Z,100187.66
2022-10-22T18:08:49.218Z,100157.56
2022-10-22T18:11:20.006Z,100183.06
2022-10-22T18:13:50.640Z,100185.28
2022-10-22T18:16:19.218Z,100181.53
2022-10-22T18:18:49.424Z,100152.00
2022-10-22T18:21:19.793Z,100177.25
2022-10-22T18:23:48.163Z,100189.44
2022-10-22T18:26:19.364Z,100183.06
2022-10-22T18:28:50.482Z,100189.00
2022-10-22T18:31:21.375Z,100176.38
2022-10-22T18:33:49.862Z,100177.34
2022-10-22T18:36:22.582Z,100177.50
2022-10-22T18:38:51.519Z,100175.56
2022-10-22T18:41:19.928Z,100169.59
2022-10-22T18:43:51.847Z,100175.97
2022-10-22T18:46:20.198Z,100175.97
2022-10-22T18:48:49.065Z,100174.69
2022-10-22T18:51:17.374Z,100175.78
2022-10-22T18:53:59.028Z,100178.81
2022-10-22T18:56:33.872Z,100161.47
2022-10-22T18:59:02.415Z,100167.75
2022-10-22T19:01:30.815Z,100177.91
2022-10-22T19:03:59.300Z,100181.16
2022-10-22T19:06:34.522Z,100191.44
2022-10-22T19:09:07.893Z,100164.84
2022-10-22T19:11:37.796Z,100167.75
2022-10-22T19:14:05.928Z,100148.97
2022-10-22T19:16:35.296Z,100151.19
2022-10-22T19:19:06.617Z,100164.53
2022-10-22T19:21:35.819Z,100168.56
2022-10-22T19:24:04.458Z,100178.38
2022-10-22T19:26:34.363Z,100187.78
2022-10-22T19:29:03.115Z,100200.16
2022-10-22T19:31:32.670Z,100173.22
2022-10-22T19:34:02.697Z,100187.25
2022-10-22T19:36:32.776Z,100184.34
2022-10-22T19:39:01.843Z,100187.41
2022-10-22T19:41:32.054Z,100193.53
2022-10-22T19:44:02.465Z,100186.44
2022-10-22T19:46:33.312Z,100196.78
2022-10-22T19:49:04.155Z,100195.25
2022-10-22T19:51:34.622Z,100195.81
2022-10-22T19:54:05.010Z,100191.06
2022-10-22T19:56:35.304Z,100198.06
2022-10-22T19:59:06.178Z,100195.97
2022-10-22T20:01:35.164Z,100199.50
2022-10-22T20:04:05.012Z,100198.31
2022-10-22T20:06:33.790Z,100199.50
2022-10-22T20:09:03.122Z,100158.63
2022-10-22T20:11:31.826Z,100185.34
2022-10-22T20:14:01.018Z,100183.22
2022-10-22T20:16:31.795Z,100181.44
2022-10-22T20:19:05.715Z,100179.78
2022-10-22T20:21:34.706Z,100176.91
2022-10-22T20:24:03.552Z,100184.75
2022-10-22T20:26:32.827Z,100177.09
2022-10-22T20:29:01.355Z,100164.94
2022-10-22T20:31:33.567Z,100173.50
2022-10-22T20:34:02.584Z,100185.94
2022-10-22T20:36:32.796Z,100176.38
2022-10-22T20:39:02.983Z,100162.56
2022-10-22T20:41:31.030Z,100173.72
2022-10-22T20:43:59.135Z,100141.31
2022-10-22T20:46:31.254Z,100158.97
2022-10-22T20:49:03.072Z,100157.00
2022-10-22T20:51:31.770Z,100138.41
2022-10-22T20:54:00.569Z,100167.13
2022-10-22T20:56:29.337Z,100164.03
2022-10-22T20:59:04.516Z,100160.00
2022-10-22T21:01:35.168Z,100161.91
2022-10-22T21:04:05.484Z,100138.06
2022-10-22T21:06:34.380Z,100128.66
2022-10-22T21:09:02.876Z,100162.00
2022-10-22T21:11:31.691Z,100148.56
2022-10-22T21:14:00.534Z,100160.31
2022-10-22T21:16:28.972Z,100151.00
2022-10-22T21:18:57.497Z,100163.19
2022-10-22T21:21:27.308Z,100151.91
2022-10-22T21:23:55.507Z,100141.34
2022-10-22T21:26:24.300Z,100133.97
2022-10-22T21:28:52.564Z,100126.94
2022-10-22T21:31:22.439Z,100131.22
2022-10-22T21:33:51.715Z,100133.38
2022-10-22T21:36:23.153Z,100139.00
2022-10-22T21:38:54.106Z,100131.97
2022-10-22T21:41:24.673Z,100129.88
2022-10-22T21:43:53.097Z,100111.09
2022-10-22T21:46:25.749Z,100116.50
2022-10-22T21:48:55.412Z,100120.75
2022-10-22T21:51:25.481Z,100118.69
2022-10-22T21:53:56.995Z,100110.28
2022-10-22T21:56:27.207Z,100114.47
2022-10-22T21:58:56.395Z,100108.94
2022-10-22T22:01:25.405Z,100109.25
2022-10-22T22:03:55.012Z,100102.22
2022-10-22T22:06:28.360Z,100101.28
2022-10-22T22:09:00.493Z,100102.03
2022-10-22T22:11:29.997Z,100099.63
2022-10-22T22:13:59.708Z,100101.06
2022-10-22T22:16:29.883Z,100105.13
2022-10-22T22:18:59.495Z,100106.94
2022-10-22T22:21:29.345Z,100102.50
2022-10-22T22:24:00.247Z,100102.25
2022-10-22T22:26:30.378Z,100075.47
2022-10-22T22:28:59.829Z,100089.28
2022-10-22T22:31:29.553Z,100085.38
2022-10-22T22:34:02.439Z,100106.81
2022-10-22T22:36:35.245Z,100074.88
2022-10-22T22:39:05.299Z,100076.53
2022-10-22T22:41:33.917Z,100094.59
2022-10-22T22:44:02.164Z,100080.47
2022-10-22T22:46:30.534Z,99974.72
2022-10-22T22:48:59.307Z,100084.06
2022-10-22T22:51:27.985Z,100058.66
2022-10-22T22:53:58.148Z,100080.59
2022-10-22T22:56:30.315Z,100056.78
2022-10-22T22:58:59.902Z,100070.25
2022-10-22T23:01:30.423Z,100077.28
2022-10-22T23:04:00.759Z,100069.06
2022-10-22T23:06:30.808Z,100070.50
2022-10-22T23:08:59.796Z,100063.69
2022-10-22T23:11:30.171Z,100070.03
2022-10-22T23:14:00.256Z,100052.94
2022-10-22T23:16:31.002Z,100066.91
2022-10-22T23:19:02.283Z,100039.28
2022-10-22T23:21:32.291Z,100068.63
2022-10-22T23:24:03.085Z,100059.38
2022-10-22T23:26:35.458Z,100071.22
2022-10-22T23:29:04.700Z,100038.13
2022-10-22T23:31:33.332Z,100042.50
2022-10-22T23:34:02.050Z,100041.41
2022-10-22T23:36:31.710Z,100063.03
2022-10-22T23:38:59.801Z,100055.03
2022-10-22T23:41:28.228Z,100050.88
2022-10-22T23:43:58.983Z,100057.63
2022-10-22T23:46:27.761Z,100051.53
2022-10-22T23:48:57.895Z,100043.25
2022-10-22T23:51:27.153Z,100050.28
2022-10-22T23:53:57.744Z,100033.63
2022-10-22T23:56:26.785Z,100048.31
2022-10-22T23:58:56.087Z,100051.44
